Time;durP1;ratioP1;P1;durP2;ratioP2;P2;SDS_P1;SDS_P2;PMS_P1;PMS_P2;Temp;Humidity;BMP_temperature;BMP_pressure;BME280_temperature;BME280_humidity;BME280_pressure;Samples;Min_cycle;Max_cycle;Signal;HPM_P1;HPM_P2
2021/12/03 05:00:19;;;;;;;;;6.33;4.00;;;;;7.76;54.68;101197.84;6052786;22;46548;-85
2021/12/03 05:02:45;;;;;;;;;5.00;5.00;;;;;6.85;54.87;101035.66;5013489;28;48446;-85
2021/12/03 05:05:11;;;;;;;;;5.67;4.33;;;;;7.14;54.67;101100.34;4997244;28;45524;-86
2021/12/03 05:10:07;;;;;;;;;3.67;3.67;;;;;7.59;55.17;101161.13;4998243;28;45603;-87
2021/12/03 05:12:33;;;;;;;;;5.67;4.67;;;;;6.87;54.57;101027.69;4998599;28;46490;-87
2021/12/03 05:14:59;;;;;;;;;4.67;4.67;;;;;7.69;54.38;101160.00;4995350;28;45390;-87
2021/12/03 05:17:24;;;;;;;;;6.67;6.00;;;;;7.09;54.49;101049.22;4996612;28;45445;-87
2021/12/03 05:19:50;;;;;;;;;6.67;5.00;;;;;7.28;54.70;101076.13;4987019;28;45302;-87
2021/12/03 05:22:15;;;;;;;;;5.00;4.00;;;;;6.88;54.51;101002.91;4998428;28;46572;-87
2021/12/03 05:24:45;;;;;;;;;3.67;3.67;;;;;7.75;54.53;101151.00;4997560;28;45378;-87
2021/12/03 05:27:13;;;;;;;;;4.33;4.33;;;;;7.40;54.37;101099.72;4997394;28;45406;-85
2021/12/03 05:29:38;;;;;;;;;3.67;3.67;;;;;6.80;54.81;100994.28;4997585;28;45373;-87
2021/12/03 05:32:04;;;;;;;;;4.67;4.67;;;;;7.32;54.57;101073.38;4998516;28;45676;-87
2021/12/03 05:34:29;;;;;;;;;3.67;3.67;;;;;6.75;54.27;100978.50;4997442;28;45683;-87
2021/12/03 05:36:55;;;;;;;;;3.00;3.00;;;;;7.10;54.45;101030.63;4997158;28;45412;-87
2021/12/03 05:39:20;;;;;;;;;4.00;4.00;;;;;7.63;54.68;101106.22;4998515;28;45711;-87
2021/12/03 05:41:45;;;;;;;;;6.00;4.67;;;;;7.33;54.30;101053.94;4998705;28;45373;-86
2021/12/03 05:44:12;;;;;;;;;5.00;3.00;;;;;7.24;54.54;101048.00;4994305;28;45365;-87
2021/12/03 05:46:40;;;;;;;;;3.33;3.33;;;;;7.79;54.79;101140.25;4993932;28;45662;-87
2021/12/03 05:49:06;;;;;;;;;5.33;3.67;;;;;7.83;54.48;101128.66;4996896;28;45391;-86
2021/12/03 05:51:32;;;;;;;;;4.00;3.00;;;;;7.40;54.28;101065.25;4998506;28;46435;-86
2021/12/03 05:53:57;;;;;;;;;3.33;3.33;;;;;7.51;54.12;101070.25;4998736;28;45565;-87
2021/12/03 05:56:23;;;;;;;;;3.00;3.00;;;;;7.42;54.36;101049.28;4992046;28;45385;-86
2021/12/03 05:58:49;;;;;;;;;3.00;3.00;;;;;7.89;53.97;101105.53;4979064;28;45259;-87
2021/12/03 06:01:14;;;;;;;;;4.00;3.00;;;;;7.83;54.03;101082.69;4999277;28;45453;-88
2021/12/03 06:03:40;;;;;;;;;3.00;3.00;;;;;7.40;53.86;101023.69;5018427;28;45360;-87
2021/12/03 06:06:05;;;;;;;;;2.00;2.00;;;;;7.43;54.33;101013.91;5015640;28;45591;-87
2021/12/03 06:08:30;;;;;;;;;3.00;3.00;;;;;7.22;54.30;100971.13;5013931;28;45515;-86
2021/12/03 06:10:56;;;;;;;;;3.33;3.33;;;;;7.95;54.44;101095.63;4998462;28;46344;-86
2021/12/03 06:13:21;;;;;;;;;5.33;3.00;;;;;7.98;54.27;101098.22;4997800;28;45284;-86
2021/12/03 06:15:46;;;;;;;;;4.33;3.00;;;;;7.43;54.00;101003.31;4997434;28;45458;-89
2021/12/03 06:18:12;;;;;;;;;4.67;3.00;;;;;7.40;54.14;101005.13;4997785;28;45626;-87
2021/12/03 06:20:37;;;;;;;;;4.00;4.00;;;;;7.74;53.89;101067.00;5007515;28;46973;-87
2021/12/03 06:23:03;;;;;;;;;2.67;2.00;;;;;7.72;53.65;101056.44;4978458;28;45332;-87
2021/12/03 06:25:28;;;;;;;;;3.33;3.33;;;;;7.68;53.94;101051.25;5005936;28;45320;-87
2021/12/03 06:27:56;;;;;;;;;5.00;3.00;;;;;7.81;53.56;101064.13;4995748;28;45475;-87
2021/12/03 06:30:24;;;;;;;;;2.00;2.00;;;;;7.43;53.72;101004.16;4997247;28;46689;-86
2021/12/03 06:32:49;;;;;;;;;3.00;3.00;;;;;8.08;53.38;101114.75;4991025;28;45326;-87
2021/12/03 06:35:16;;;;;;;;;6.67;2.67;;;;;7.26;53.60;100954.25;4988442;28;45185;-87
2021/12/03 06:37:42;;;;;;;;;4.00;3.33;;;;;7.48;53.49;100983.69;4995875;28;45556;-86
2021/12/03 06:40:12;;;;;;;;;3.33;2.67;;;;;7.72;53.23;101024.59;4985697;28;48256;-88
2021/12/03 06:42:37;;;;;;;;;4.00;4.00;;;;;8.07;53.54;101080.28;4988779;28;45399;-87
2021/12/03 06:45:05;;;;;;;;;3.00;3.00;;;;;7.74;53.13;101029.88;4997330;28;45428;-87
2021/12/03 06:47:33;;;;;;;;;3.00;3.00;;;;;8.21;52.81;101105.50;4997847;28;45586;-86
2021/12/03 06:49:59;;;;;;;;;2.67;2.67;;;;;7.62;53.07;101015.16;4993461;28;46426;-85
2021/12/03 06:52:25;;;;;;;;;4.33;3.00;;;;;8.12;52.86;101100.44;4997253;28;45448;-83
2021/12/03 06:55:01;;;;;;;;;4.67;2.00;;;;;8.15;53.40;101099.53;4998205;28;45284;-85
2021/12/03 06:57:26;;;;;;;;;2.33;2.33;;;;;8.20;53.29;101106.44;4978211;28;45427;-84
2021/12/03 06:59:52;;;;;;;;;8.67;5.33;;;;;7.92;52.99;101068.31;4976546;28;47841;-85
2021/12/03 07:02:17;;;;;;;;;5.67;4.00;;;;;8.19;53.08;101103.81;5010654;28;45803;-86
2021/12/03 07:04:44;;;;;;;;;4.00;3.00;;;;;8.15;52.97;101102.19;4992879;28;45377;-87
2021/12/03 07:07:10;;;;;;;;;2.00;2.00;;;;;8.15;53.16;101091.56;4985367;28;45629;-85
2021/12/03 07:09:35;;;;;;;;;3.00;2.00;;;;;7.71;53.02;101037.91;5005081;28;47411;-88
2021/12/03 07:12:01;;;;;;;;;2.33;2.33;;;;;7.38;53.27;100977.78;4987180;28;45528;-87
2021/12/03 07:14:26;;;;;;;;;2.33;2.33;;;;;8.14;53.57;101093.31;4981448;28;45313;-85
2021/12/03 07:16:52;;;;;;;;;8.33;4.33;;;;;7.45;53.58;100962.56;4992376;28;45242;-84
2021/12/03 07:19:17;;;;;;;;;2.67;2.67;;;;;8.23;52.90;101086.88;4986592;28;45809;-85
2021/12/03 07:21:42;;;;;;;;;2.67;2.33;;;;;7.79;53.06;101007.59;4984719;28;45460;-85
2021/12/03 07:24:08;;;;;;;;;3.33;2.00;;;;;8.19;52.85;101079.91;4993744;28;45294;-85
2021/12/03 07:26:33;;;;;;;;;3.00;2.00;;;;;8.08;52.87;101077.59;5008185;28;45577;-85
2021/12/03 07:28:58;;;;;;;;;3.67;3.67;;;;;8.14;53.53;101080.03;4991537;28;45650;-86
2021/12/03 07:31:24;;;;;;;;;4.67;3.33;;;;;7.96;53.05;101046.06;4990414;28;45413;-85
2021/12/03 07:33:52;;;;;;;;;2.00;2.00;;;;;8.18;53.23;101083.50;4995280;28;45436;-86
2021/12/03 07:36:17;;;;;;;;;1.00;1.00;;;;;7.96;53.36;101040.75;4990953;28;45543;-84
2021/12/03 07:38:43;;;;;;;;;1.67;1.67;;;;;8.19;52.86;101079.91;4992515;28;45386;-88
2021/12/03 07:41:08;;;;;;;;;4.00;4.00;;;;;8.02;52.76;101049.41;4991289;28;45764;-86
2021/12/03 07:43:34;;;;;;;;;22.33;18.00;;;;;7.77;52.59;101014.75;4989312;28;45920;-86
2021/12/03 07:46:00;;;;;;;;;16.67;15.33;;;;;8.23;53.44;101079.78;4995598;28;45473;-84
2021/12/03 07:48:25;;;;;;;;;4.00;3.00;;;;;8.11;54.08;101064.22;4986902;28;46860;-88
2021/12/03 07:50:56;;;;;;;;;2.67;2.67;;;;;8.42;53.55;101090.78;4992942;28;45568;-85
2021/12/03 07:53:22;;;;;;;;;1.00;1.00;;;;;8.30;52.36;101066.34;4991278;28;45453;-84
2021/12/03 07:55:49;;;;;;;;;4.00;2.33;;;;;8.57;52.11;101083.25;4997340;28;45669;-85
2021/12/03 07:58:15;;;;;;;;;2.00;2.00;;;;;8.38;52.19;101032.44;4996884;28;45744;-86
2021/12/03 08:00:43;;;;;;;;;5.00;3.33;;;;;8.75;51.37;101077.41;4980814;28;45477;-85
2021/12/03 08:03:08;;;;;;;;;3.00;1.00;;;;;8.47;51.60;101021.56;4991877;28;45553;-86
2021/12/03 08:05:33;;;;;;;;;2.00;2.00;;;;;8.88;52.37;101078.75;4987870;28;45445;-84
2021/12/03 08:07:59;;;;;;;;;2.33;1.00;;;;;8.55;50.99;101013.41;4998920;28;46709;-85
2021/12/03 08:10:26;;;;;;;;;3.67;2.00;;;;;8.98;51.39;101089.09;4988954;28;45559;-84
2021/12/03 08:12:51;;;;;;;;;2.33;1.33;;;;;8.16;51.42;100948.13;4988755;28;45321;-85
2021/12/03 08:15:17;;;;;;;;;1.00;1.00;;;;;8.54;50.69;101011.63;4988917;28;45451;-85
2021/12/03 08:17:42;;;;;;;;;2.00;2.00;;;;;9.06;50.59;101084.41;4986212;28;46212;-85
2021/12/03 08:20:09;;;;;;;;;5.00;3.00;;;;;8.77;51.03;101025.06;4987566;28;45235;-86
2021/12/03 08:22:35;;;;;;;;;7.00;5.00;;;;;9.13;50.63;101080.66;4988755;28;45622;-83
2021/12/03 08:25:01;;;;;;;;;4.00;2.67;;;;;9.19;50.45;101075.13;4995503;28;45458;-87
2021/12/03 08:27:27;;;;;;;;;2.33;2.33;;;;;9.21;50.20;101078.59;5023346;28;48254;-84
2021/12/03 08:29:52;;;;;;;;;4.33;3.33;;;;;8.55;50.16;100961.13;4995042;28;45461;-84
2021/12/03 08:32:22;;;;;;;;;3.33;2.33;;;;;9.27;50.17;101075.75;5012277;28;45621;-84
2021/12/03 08:34:50;;;;;;;;;3.00;2.33;;;;;9.13;49.75;101063.81;4992344;28;45608;-84
2021/12/03 08:37:43;;;;;;;;;2.00;2.00;;;;;9.29;49.99;101076.59;5002172;28;45505;-85
2021/12/03 08:40:04;;;;;;;;;4.67;3.67;;;;;9.36;49.76;101076.34;4983540;28;45260;-84
2021/12/03 08:42:30;;;;;;;;;3.00;3.00;;;;;9.30;50.39;101067.66;4985122;28;45394;-84
2021/12/03 08:44:57;;;;;;;;;3.00;3.00;;;;;9.38;49.71;101079.84;4988313;28;45681;-85
2021/12/03 08:47:33;;;;;;;;;3.00;3.00;;;;;9.23;50.88;101063.47;4991620;28;48087;-86
2021/12/03 08:50:00;;;;;;;;;5.33;3.33;;;;;9.17;49.67;101054.81;4992633;28;45387;-84
2021/12/03 08:53:19;;;;;;;;;3.33;3.33;;;;;8.86;49.82;101000.84;4991320;28;45433;-85
2021/12/03 08:55:11;;;;;;;;;3.00;3.00;;;;;9.08;49.86;101046.25;4989090;28;45466;-85
2021/12/03 08:57:37;;;;;;;;;4.00;2.33;;;;;9.08;49.42;101058.63;4985568;28;46194;-85
2021/12/03 09:00:13;;;;;;;;;3.00;3.00;;;;;9.23;49.96;101083.88;5010499;28;45485;-84
2021/12/03 09:02:40;;;;;;;;;3.67;3.67;;;;;8.55;50.17;100998.31;5019270;28;45437;-86
2021/12/03 09:05:06;;;;;;;;;2.33;2.33;;;;;8.57;49.90;101007.13;4986370;28;45468;-85
2021/12/03 09:07:32;;;;;;;;;7.00;4.33;;;;;8.83;50.49;101067.41;5001879;28;48078;-90
2021/12/03 09:09:57;;;;;;;;;3.67;2.00;;;;;8.59;50.27;101013.25;4980702;28;45854;-85
2021/12/03 09:12:23;;;;;;;;;3.00;3.00;;;;;8.67;50.33;101010.34;4990272;28;45583;-86
2021/12/03 09:15:12;;;;;;;;;4.67;3.67;;;;;9.09;50.83;101084.31;4993760;28;45586;-87
2021/12/03 09:22:38;;;;;;;;;4.00;4.00;;;;;8.38;51.96;100980.22;4995054;28;45580;-85
2021/12/03 09:25:06;;;;;;;;;3.67;3.67;;;;;7.92;52.10;100917.91;4989331;28;45520;-94
2021/12/03 09:27:32;;;;;;;;;3.00;3.00;;;;;8.28;52.69;100976.09;5015661;28;48509;-89
2021/12/03 09:29:58;;;;;;;;;3.00;3.00;;;;;8.81;52.79;101055.97;4992806;28;45559;-88
2021/12/03 09:32:28;;;;;;;;;6.33;4.00;;;;;8.83;52.27;101042.63;5019658;28;45365;-89
2021/12/03 09:34:54;;;;;;;;;3.00;3.00;;;;;8.86;52.90;101042.53;4990483;28;45334;-87
2021/12/03 09:37:20;;;;;;;;;6.00;5.00;;;;;8.39;53.22;100970.47;4987633;28;46472;-88
2021/12/03 09:39:46;;;;;;;;;4.33;4.00;;;;;8.48;52.74;100986.16;4993310;28;45389;-87
2021/12/03 09:42:14;;;;;;;;;3.00;3.00;;;;;8.93;53.05;101040.53;4983995;28;45347;-87
2021/12/03 09:44:44;;;;;;;;;4.33;3.67;;;;;8.95;53.15;101044.88;4991258;28;45612;-90
2021/12/03 09:47:10;;;;;;;;;4.67;4.67;;;;;8.59;52.68;100985.78;4986188;28;47239;-90
2021/12/03 09:49:39;;;;;;;;;6.00;4.00;;;;;8.31;53.87;100937.94;4981189;28;45490;-91
2021/12/03 09:54:44;;;;;;;;;5.00;3.00;;;;;8.47;54.01;100994.16;4986051;28;45339;-88
2021/12/03 09:57:15;;;;;;;;;3.00;3.00;;;;;8.37;55.15;100993.53;4997038;28;46038;-90
2021/12/03 10:02:29;;;;;;;;;4.00;4.00;;;;;7.97;55.93;100944.28;4997356;28;45470;-90
2021/12/03 10:16:06;;;;;;;;;4.67;3.00;;;;;7.31;58.35;100867.50;4985825;28;45468;-88
2021/12/03 10:21:38;;;;;;;;;4.33;4.00;;;;;7.73;59.57;100949.41;4981107;28;45449;-89
2021/12/03 10:29:40;;;;;;;;;4.33;4.33;;;;;7.33;60.78;100878.94;4999698;28;45537;-89
2021/12/03 10:32:37;;;;;;;;;3.00;3.00;;;;;7.73;61.49;100960.03;5007952;28;45378;-91
2021/12/03 10:41:15;;;;;;;;;4.67;3.00;;;;;7.25;63.60;100870.31;5001303;28;46401;-90
2021/12/03 10:43:54;;;;;;;;;4.00;4.00;;;;;7.78;64.23;100957.25;4987035;28;45569;-90
2021/12/03 10:46:37;;;;;;;;;3.67;3.67;;;;;6.98;64.05;100829.56;5002103;28;45612;-82
2021/12/03 10:51:56;;;;;;;;;7.00;6.00;;;;;7.25;67.12;100875.63;5003579;28;46065;-82
2021/12/03 10:54:49;;;;;;;;;5.00;4.00;;;;;7.57;65.68;100943.66;5004552;28;45940;-82
2021/12/03 11:19:47;;;;;;;;;5.00;5.00;;;;;7.22;65.73;100870.41;4989755;28;45591;-80
2021/12/03 11:25:57;;;;;;;;;1.67;1.67;;;;;7.27;65.14;100846.41;4984565;28;45910;-80
2021/12/03 11:30:18;;;;;;;;;6.67;6.00;;;;;7.49;65.86;100862.56;4992083;28;45437;-81
2021/12/03 11:36:23;;;;;;;;;4.00;3.00;;;;;7.53;64.87;100851.81;5004622;28;46487;-82
2021/12/03 12:57:51;;;;;;;;;2.33;2.33;;;;;6.54;67.83;100604.75;4993707;28;45295;-90
2021/12/03 13:13:33;;;;;;;;;2.00;1.00;;;;;6.30;66.77;100531.38;4981168;28;45468;-83
2021/12/03 14:32:43;;;;;;;;;2.00;2.00;;;;;6.89;66.70;100420.03;4956131;28;45421;-89
2021/12/03 14:44:58;;;;;;;;;1.00;1.00;;;;;7.49;67.45;100508.09;4947636;28;47059;-82
2021/12/03 14:50:27;;;;;;;;;2.00;2.00;;;;;7.28;67.56;100445.19;4954565;28;45663;-89
2021/12/03 14:53:33;;;;;;;;;3.00;3.00;;;;;7.52;67.77;100481.47;4955523;28;45444;-88
2021/12/03 14:55:53;;;;;;;;;2.00;2.00;;;;;7.30;68.03;100408.91;4954040;28;45490;-87
2021/12/03 14:58:23;;;;;;;;;2.67;2.67;;;;;7.09;67.88;100365.47;4939787;28;45433;-85
2021/12/03 15:03:42;;;;;;;;;2.00;2.00;;;;;7.41;67.24;100406.75;4946065;28;45457;-91
2021/12/03 15:06:17;;;;;;;;;2.00;2.00;;;;;7.79;66.50;100476.09;4958496;28;47388;-83
2021/12/03 15:08:52;;;;;;;;;1.00;1.00;;;;;7.87;67.10;100500.56;4986064;28;45710;-82
2021/12/03 15:14:48;;;;;;;;;2.00;2.00;;;;;7.94;67.99;100485.28;4987519;28;45705;-88
2021/12/03 15:25:27;;;;;;;;;3.00;3.00;;;;;7.24;67.46;100364.94;4973773;28;45549;-80
2021/12/03 15:28:34;;;;;;;;;1.33;1.33;;;;;8.11;68.42;100479.34;4972746;28;45521;-85
2021/12/03 15:31:07;;;;;;;;;2.00;2.00;;;;;8.18;67.07;100496.78;4973044;28;45562;-82
2021/12/03 15:36:09;;;;;;;;;2.33;2.33;;;;;7.17;67.06;100303.34;4973439;28;45419;-82
2021/12/03 15:39:00;;;;;;;;;4.00;4.00;;;;;7.75;67.03;100393.13;4973710;28;45995;-82
2021/12/03 15:58:08;;;;;;;;;4.67;1.67;;;;;7.93;67.08;100383.56;4974574;28;45316;-83
2021/12/03 16:03:37;;;;;;;;;2.00;2.00;;;;;8.31;67.39;100417.50;4989468;28;45430;-79
2021/12/03 16:08:44;;;;;;;;;1.00;1.00;;;;;8.51;66.51;100419.41;4990097;28;45664;-78
2021/12/03 16:11:28;;;;;;;;;3.00;3.00;;;;;8.24;66.55;100363.78;4986761;28;47106;-79
2021/12/03 16:22:03;;;;;;;;;2.67;2.67;;;;;8.28;66.31;100338.84;4992621;28;45767;-86
2021/12/03 16:53:31;;;;;;;;;3.67;2.00;;;;;7.93;65.64;100187.19;4995067;28;45596;-85
2021/12/03 16:56:03;;;;;;;;;1.67;1.67;;;;;8.82;65.70;100323.34;4987125;28;45425;-86
2021/12/03 16:58:29;;;;;;;;;2.00;2.00;;;;;7.70;65.26;100128.94;5001112;28;46602;-81
2021/12/03 17:01:05;;;;;;;;;5.67;4.00;;;;;7.86;65.66;100153.91;4997137;28;45639;-82
2021/12/03 17:04:27;;;;;;;;;2.00;2.00;;;;;8.89;65.75;100311.50;4991498;28;45519;-84
2021/12/03 17:07:27;;;;;;;;;3.00;3.00;;;;;8.07;65.53;100183.97;4990472;28;46066;-81
2021/12/03 17:24:00;;;;;;;;;1.67;1.67;;;;;8.95;67.25;100268.72;4987833;28;45689;-82
2021/12/03 17:49:54;;;;;;;;;6.00;6.00;;;;;9.18;69.63;100246.41;5001247;28;45382;-88
2021/12/03 17:55:13;;;;;;;;;6.67;5.00;;;;;8.45;69.65;100097.38;4990370;28;45718;-87
2021/12/03 17:57:52;;;;;;;;;3.67;3.67;;;;;8.65;69.65;100120.38;4988818;28;46065;-85
2021/12/03 18:00:36;;;;;;;;;3.33;3.33;;;;;9.36;69.24;100211.91;4990674;28;45527;-91
2021/12/03 18:03:08;;;;;;;;;3.67;3.67;;;;;7.73;69.82;99937.84;4990348;28;45262;-92
2021/12/03 18:05:53;;;;;;;;;4.33;4.33;;;;;8.75;70.40;100119.94;4985143;28;45496;-87
2021/12/03 18:08:22;;;;;;;;;6.00;4.67;;;;;8.64;70.76;100097.41;4989785;28;46118;-91
2021/12/03 18:43:35;;;;;;;;;12.33;9.00;;;;;8.78;70.44;100033.00;4996220;28;45231;-91
2021/12/03 18:56:16;;;;;;;;;13.33;12.33;;;;;9.04;69.85;100033.53;4997585;28;45441;-87
2021/12/03 18:58:42;;;;;;;;;8.00;8.00;;;;;9.29;69.52;100062.41;4989506;28;45346;-90
2021/12/03 19:01:07;;;;;;;;;76.25;62.25;;;;;9.25;69.53;100042.25;4992464;28;46895;-93
2021/12/03 19:06:37;;;;;;;;;14.67;13.67;;;;;9.33;69.50;100033.88;4988115;28;45363;-82
2021/12/03 19:09:10;;;;;;;;;33.50;32.00;;;;;9.75;69.25;100110.66;4988524;28;45427;-86
2021/12/03 19:11:53;;;;;;;;;16.67;14.67;;;;;9.36;69.08;100037.25;5008529;28;46899;-91
2021/12/03 19:14:19;;;;;;;;;12.33;11.67;;;;;9.82;69.82;100093.44;5007538;28;45516;-84
2021/12/03 19:16:45;;;;;;;;;14.33;14.00;;;;;9.86;69.31;100092.38;4987482;28;45384;-78
2021/12/03 19:19:13;;;;;;;;;21.00;21.00;;;;;9.90;69.64;100091.28;4991233;28;45405;-81
2021/12/03 19:21:40;;;;;;;;;24.00;23.00;;;;;9.72;69.61;100045.16;4996597;28;45981;-84
2021/12/03 19:24:07;;;;;;;;;19.00;19.00;;;;;9.96;69.29;100084.75;5008145;28;45461;-80
2021/12/03 19:26:34;;;;;;;;;15.33;13.67;;;;;9.92;69.57;100059.22;4980950;28;45576;-79
2021/12/03 19:29:04;;;;;;;;;24.67;24.67;;;;;9.64;69.05;100017.22;4990040;28;45379;-84
2021/12/03 19:31:30;;;;;;;;;20.33;20.33;;;;;9.63;68.87;100005.72;4987662;28;45405;-81
2021/12/03 19:33:57;;;;;;;;;26.33;24.67;;;;;9.73;68.92;100009.63;4993660;28;45464;-92
2021/12/03 19:36:44;;;;;;;;;14.00;12.33;;;;;10.08;69.12;100056.63;4994299;28;45550;-84
2021/12/03 19:39:12;;;;;;;;;11.33;11.33;;;;;10.07;69.26;100038.94;4990626;28;45372;-83
2021/12/03 19:41:49;;;;;;;;;11.00;11.00;;;;;10.11;69.19;100041.38;4988265;28;46114;-83
2021/12/03 19:44:18;;;;;;;;;20.00;20.00;;;;;10.10;69.47;100020.13;4983905;28;45553;-83
2021/12/03 19:46:47;;;;;;;;;37.50;31.25;;;;;10.24;69.04;100035.38;4984350;28;45398;-81
2021/12/03 19:49:33;;;;;;;;;31.67;24.67;;;;;10.21;69.21;100031.09;5018631;28;45546;-80
2021/12/03 19:52:06;;;;;;;;;12.67;11.00;;;;;10.24;68.85;100027.41;4999013;28;46224;-84
2021/12/03 19:54:32;;;;;;;;;12.67;12.67;;;;;10.05;69.45;99992.91;4983816;28;45412;-84
2021/12/03 19:56:57;;;;;;;;;19.00;17.00;;;;;9.80;69.12;99935.66;4996030;28;45635;-83
2021/12/03 19:59:25;;;;;;;;;17.67;15.00;;;;;10.11;69.21;99989.91;4992165;28;45409;-92
2021/12/03 20:01:51;;;;;;;;;33.00;30.00;;;;;10.23;69.56;100002.56;4999320;28;48162;-87
2021/12/03 20:04:17;;;;;;;;;13.00;11.00;;;;;9.20;69.74;99812.94;4980444;28;45579;-89
2021/12/03 20:06:45;;;;;;;;;16.00;15.33;;;;;9.89;69.66;99913.00;4980487;28;45321;-89
2021/12/03 20:09:27;;;;;;;;;17.00;15.33;;;;;9.58;69.17;99858.78;4989117;28;45528;-86
2021/12/03 20:11:56;;;;;;;;;15.00;12.00;;;;;10.39;69.42;99977.78;4997085;28;47781;-86
2021/12/03 20:14:22;;;;;;;;;8.67;8.67;;;;;10.51;69.56;99995.72;4978510;28;46492;-83
2021/12/03 20:17:04;;;;;;;;;20.00;16.33;;;;;10.25;69.76;99941.22;4988966;28;45389;-88
2021/12/03 20:19:35;;;;;;;;;20.33;19.33;;;;;10.00;69.70;99893.81;4993810;28;45415;-89
2021/12/03 20:27:20;;;;;;;;;19.00;19.00;;;;;9.84;69.73;99853.84;4951191;28;45455;-89
2021/12/03 20:29:52;;;;;;;;;20.67;19.33;;;;;10.50;70.06;99957.59;4943675;28;45514;-88
2021/12/03 20:35:25;;;;;;;;;21.33;19.00;;;;;9.57;69.69;99766.59;4946506;28;45489;-90
2021/12/03 20:37:51;;;;;;;;;12.00;12.00;;;;;9.94;69.85;99815.97;4951149;28;45567;-91
2021/12/03 20:40:22;;;;;;;;;19.33;16.33;;;;;9.78;69.49;99775.19;4941405;28;45581;-87
2021/12/03 20:45:48;;;;;;;;;13.33;13.00;;;;;10.74;70.21;99920.69;4942765;28;45492;-88
2021/12/03 20:53:47;;;;;;;;;7.67;7.67;;;;;10.02;70.75;99782.75;4957939;28;45467;-90
2021/12/03 21:09:53;;;;;;;;;11.00;9.33;;;;;10.46;70.95;99800.66;4990287;28;45472;-84
2021/12/03 21:12:25;;;;;;;;;10.00;10.00;;;;;10.89;70.85;99859.44;4987439;28;45362;-84
2021/12/03 21:22:58;;;;;;;;;11.00;11.00;;;;;11.22;71.12;99861.91;4990358;28;45620;-84
2021/12/03 21:25:27;;;;;;;;;10.00;7.00;;;;;10.86;70.69;99790.28;5003823;28;45528;-83
2021/12/03 21:28:06;;;;;;;;;5.00;5.00;;;;;10.77;71.30;99786.41;5000934;28;45729;-82
2021/12/03 21:42:03;;;;;;;;;5.33;5.33;;;;;11.32;71.57;99835.50;4933170;28;45603;-80
2021/12/03 21:44:28;;;;;;;;;5.00;5.00;;;;;11.41;71.80;99850.94;4934897;28;45606;-79
2021/12/03 21:46:54;;;;;;;;;5.33;5.33;;;;;11.44;71.69;99847.22;4938500;28;45774;-80
2021/12/03 21:49:20;;;;;;;;;5.67;5.67;;;;;11.44;71.80;99842.75;4937474;28;45387;-79
2021/12/03 21:51:45;;;;;;;;;6.00;4.33;;;;;11.25;71.47;99796.81;4936415;28;45395;-80
2021/12/03 21:54:13;;;;;;;;;8.67;5.00;;;;;11.35;71.39;99809.47;4934632;28;45578;-80
2021/12/03 21:56:41;;;;;;;;;5.67;5.67;;;;;11.38;71.98;99800.47;4923647;28;47335;-86
2021/12/03 21:59:06;;;;;;;;;6.00;5.00;;;;;11.25;72.33;99767.50;4931799;28;45545;-83
2021/12/03 22:01:33;;;;;;;;;6.33;5.00;;;;;11.22;71.74;99741.88;4934568;28;46111;-83
2021/12/03 22:03:58;;;;;;;;;4.33;4.33;;;;;11.30;71.69;99747.56;4944540;28;45752;-83
2021/12/03 22:06:28;;;;;;;;;6.67;6.67;;;;;11.71;72.22;99799.28;4974401;28;46124;-83
2021/12/03 22:08:55;;;;;;;;;9.00;6.00;;;;;11.63;71.78;99783.75;4969623;28;45718;-87
2021/12/03 22:11:21;;;;;;;;;7.67;7.67;;;;;11.08;71.91;99689.38;4967329;28;45611;-88
2021/12/03 22:13:46;;;;;;;;;6.00;6.00;;;;;11.36;72.12;99711.66;4978717;28;45492;-84
2021/12/03 22:16:11;;;;;;;;;8.00;5.33;;;;;11.61;72.16;99750.94;4992093;28;46155;-84
2021/12/03 22:18:37;;;;;;;;;6.00;6.00;;;;;11.86;72.24;99779.59;5006571;28;45459;-84
2021/12/03 22:21:05;;;;;;;;;5.67;4.33;;;;;11.90;72.39;99773.16;4994916;28;45497;-84
2021/12/03 22:23:32;;;;;;;;;8.00;7.67;;;;;11.79;72.10;99747.09;4995191;28;45232;-85
2021/12/03 22:25:57;;;;;;;;;8.00;8.00;;;;;11.97;72.37;99766.44;4984832;28;45687;-85
2021/12/03 22:28:25;;;;;;;;;7.00;6.00;;;;;11.77;72.28;99722.31;4987594;28;45510;-86
2021/12/03 22:30:52;;;;;;;;;9.00;7.00;;;;;12.02;72.23;99745.63;4989859;28;45316;-86
2021/12/03 22:33:21;;;;;;;;;12.00;10.00;;;;;11.69;72.82;99695.28;4985305;28;45619;-87
2021/12/03 22:35:46;;;;;;;;;5.00;5.00;;;;;11.76;73.13;99687.72;4990285;28;46269;-87
2021/12/03 22:38:12;;;;;;;;;7.00;6.00;;;;;11.72;72.62;99671.03;4988677;28;45547;-86
2021/12/03 22:40:39;;;;;;;;;5.33;5.33;;;;;12.04;73.11;99726.84;5000040;28;45532;-86
2021/12/03 22:43:10;;;;;;;;;6.00;4.33;;;;;12.12;72.86;99724.50;4992270;28;45591;-87
2021/12/03 22:45:44;;;;;;;;;5.00;5.00;;;;;11.61;73.11;99634.41;4994210;28;47789;-86
2021/12/03 22:50:52;;;;;;;;;3.33;3.33;;;;;11.95;73.50;99671.38;4997542;28;45475;-86
2021/12/03 22:53:18;;;;;;;;;4.33;4.33;;;;;11.70;73.69;99640.94;4992373;28;45587;-87
2021/12/03 22:55:44;;;;;;;;;6.00;4.67;;;;;12.00;73.98;99664.75;4991370;28;45424;-87
2021/12/03 22:58:10;;;;;;;;;4.67;4.67;;;;;11.65;73.79;99592.34;4988021;28;45549;-92
2021/12/03 23:00:44;;;;;;;;;8.00;7.00;;;;;12.27;74.03;99677.22;4998552;28;45619;-95
2021/12/03 23:03:14;;;;;;;;;3.67;3.67;;;;;12.32;74.34;99676.91;4997965;28;45413;-96
2021/12/03 23:05:41;;;;;;;;;3.67;3.67;;;;;11.73;73.79;99567.78;4998468;28;46736;-96
2021/12/03 23:08:09;;;;;;;;;5.00;3.33;;;;;11.65;73.67;99556.78;4998720;28;45469;-96
2021/12/03 23:10:35;;;;;;;;;5.33;5.33;;;;;11.08;73.16;99437.88;4999658;28;45391;-96
2021/12/03 23:13:02;;;;;;;;;5.00;4.67;;;;;11.47;74.00;99514.38;5000103;28;45514;-96
2021/12/03 23:15:27;;;;;;;;;5.67;5.67;;;;;12.00;73.52;99584.66;5000780;28;47450;-96
2021/12/03 23:17:54;;;;;;;;;6.33;6.33;;;;;11.02;73.95;99412.47;4989996;28;45442;-89
2021/12/03 23:20:20;;;;;;;;;6.00;4.67;;;;;11.07;74.48;99423.69;4982746;28;45342;-90
2021/12/03 23:22:46;;;;;;;;;4.00;4.00;;;;;12.39;74.41;99638.13;5001653;28;45856;-91
2021/12/03 23:25:13;;;;;;;;;5.67;5.67;;;;;11.66;74.40;99527.34;4984439;28;46915;-88
2021/12/03 23:27:38;;;;;;;;;5.33;4.00;;;;;12.07;74.50;99560.19;4981130;28;45418;-89
2021/12/03 23:30:05;;;;;;;;;5.00;3.67;;;;;12.41;74.74;99625.53;5005940;28;45436;-93
2021/12/03 23:32:30;;;;;;;;;3.00;3.00;;;;;11.04;74.97;99385.72;4982950;28;45432;-89
2021/12/03 23:34:56;;;;;;;;;3.33;3.33;;;;;11.49;74.54;99442.22;4991836;28;45381;-89
2021/12/03 23:37:21;;;;;;;;;0.67;0.67;;;;;12.46;74.84;99602.84;5001293;28;45386;-90
2021/12/03 23:39:46;;;;;;;;;2.33;0.67;;;;;11.82;74.76;99492.41;4987584;28;45536;-90
2021/12/03 23:42:12;;;;;;;;;3.33;3.00;;;;;12.49;75.71;99595.59;5004603;28;45248;-88
2021/12/03 23:44:39;;;;;;;;;1.67;1.67;;;;;11.50;75.03;99430.59;4991959;28;46470;-89
2021/12/03 23:47:05;;;;;;;;;1.67;1.67;;;;;11.61;75.64;99428.91;5019023;28;45432;-88
2021/12/03 23:49:33;;;;;;;;;1.33;0.33;;;;;11.08;75.89;99328.56;4987777;28;45540;-89
2021/12/03 23:51:59;;;;;;;;;0.67;0.00;;;;;11.76;76.12;99442.16;4983265;28;45564;-89
2021/12/03 23:54:28;;;;;;;;;0.00;0.00;;;;;12.27;77.01;99514.25;4994473;28;45822;-90
2021/12/03 23:56:54;;;;;;;;;0.00;0.00;;;;;11.59;77.17;99396.13;4992635;28;45461;-88
2021/12/03 23:59:25;;;;;;;;;0.00;0.00;;;;;12.21;76.96;99491.50;4985159;28;45460;-88
